sensor_id;sensor_type;location;lat;lon;timestamp;pressure;altitude;pressure_sealevel;temperature;humidity
78407;BME280;67692;51.074;-1.790;2023-04-01T00:01:07;99526.81;;;9.92;86.04
78407;BME280;67692;51.074;-1.790;2023-04-01T00:03:34;99522.06;;;9.87;85.97
78407;BME280;67692;51.074;-1.790;2023-04-01T00:06:01;99530.19;;;9.82;85.78
78407;BME280;67692;51.074;-1.790;2023-04-01T00:08:29;99529.94;;;9.86;85.78
78407;BME280;67692;51.074;-1.790;2023-04-01T00:10:57;99533.22;;;9.88;85.93
78407;BME280;67692;51.074;-1.790;2023-04-01T00:13:24;99534.84;;;9.89;86.05
78407;BME280;67692;51.074;-1.790;2023-04-01T00:15:52;99536.06;;;9.84;85.90
78407;BME280;67692;51.074;-1.790;2023-04-01T00:18:19;99537.94;;;9.82;85.61
78407;BME280;67692;51.074;-1.790;2023-04-01T00:20:46;99537.38;;;9.79;85.14
78407;BME280;67692;51.074;-1.790;2023-04-01T00:23:13;99542.94;;;9.74;85.90
78407;BME280;67692;51.074;-1.790;2023-04-01T00:25:41;99546.63;;;9.81;86.12
78407;BME280;67692;51.074;-1.790;2023-04-01T00:28:09;99547.22;;;9.85;85.67
78407;BME280;67692;51.074;-1.790;2023-04-01T00:30:36;99546.50;;;9.83;85.24
78407;BME280;67692;51.074;-1.790;2023-04-01T00:33:03;99550.03;;;9.82;85.77
78407;BME280;67692;51.074;-1.790;2023-04-01T00:35:30;99548.03;;;9.86;85.92
78407;BME280;67692;51.074;-1.790;2023-04-01T00:37:57;99552.69;;;9.92;86.19
78407;BME280;67692;51.074;-1.790;2023-04-01T00:40:32;99553.81;;;9.99;85.58
78407;BME280;67692;51.074;-1.790;2023-04-01T00:42:59;99556.28;;;10.00;84.69
78407;BME280;67692;51.074;-1.790;2023-04-01T00:45:38;99560.50;;;10.01;85.42
78407;BME280;67692;51.074;-1.790;2023-04-01T00:48:08;99563.44;;;9.97;85.55
78407;BME280;67692;51.074;-1.790;2023-04-01T00:50:36;99561.81;;;9.96;85.66
78407;BME280;67692;51.074;-1.790;2023-04-01T00:53:05;99566.63;;;10.00;85.08
78407;BME280;67692;51.074;-1.790;2023-04-01T00:55:35;99569.84;;;9.93;85.69
78407;BME280;67692;51.074;-1.790;2023-04-01T00:58:07;99553.38;;;9.94;85.79
78407;BME280;67692;51.074;-1.790;2023-04-01T01:00:37;99567.13;;;9.94;85.85
78407;BME280;67692;51.074;-1.790;2023-04-01T01:03:04;99569.16;;;9.91;86.29
78407;BME280;67692;51.074;-1.790;2023-04-01T01:05:39;99580.03;;;9.84;86.46
78407;BME280;67692;51.074;-1.790;2023-04-01T01:08:18;99574.72;;;9.86;86.42
78407;BME280;67692;51.074;-1.790;2023-04-01T01:10:49;99571.19;;;9.87;86.76
78407;BME280;67692;51.074;-1.790;2023-04-01T01:13:19;99576.16;;;9.79;86.81
78407;BME280;67692;51.074;-1.790;2023-04-01T01:15:55;99576.03;;;9.80;86.83
78407;BME280;67692;51.074;-1.790;2023-04-01T01:18:28;99575.78;;;9.83;87.14
78407;BME280;67692;51.074;-1.790;2023-04-01T01:21:16;99576.72;;;9.82;87.15
78407;BME280;67692;51.074;-1.790;2023-04-01T01:24:06;99583.09;;;9.78;87.07
78407;BME280;67692;51.074;-1.790;2023-04-01T01:26:48;99581.47;;;9.77;87.08
78407;BME280;67692;51.074;-1.790;2023-04-01T01:30:00;99576.69;;;9.73;87.59
78407;BME280;67692;51.074;-1.790;2023-04-01T01:32:59;99586.91;;;9.74;87.38
78407;BME280;67692;51.074;-1.790;2023-04-01T01:35:31;99589.22;;;9.77;87.47
78407;BME280;67692;51.074;-1.790;2023-04-01T01:38:02;99593.84;;;9.74;87.56
78407;BME280;67692;51.074;-1.790;2023-04-01T01:40:31;99593.69;;;9.75;87.10
78407;BME280;67692;51.074;-1.790;2023-04-01T01:43:02;99599.56;;;9.77;87.32
78407;BME280;67692;51.074;-1.790;2023-04-01T01:45:32;99596.03;;;9.78;87.16
78407;BME280;67692;51.074;-1.790;2023-04-01T01:48:02;99601.19;;;9.78;87.27
78407;BME280;67692;51.074;-1.790;2023-04-01T01:50:31;99606.75;;;9.74;87.25
78407;BME280;67692;51.074;-1.790;2023-04-01T01:53:05;99599.13;;;9.72;87.74
78407;BME280;67692;51.074;-1.790;2023-04-01T01:55:34;99604.88;;;9.76;87.92
78407;BME280;67692;51.074;-1.790;2023-04-01T01:58:05;99616.53;;;9.70;88.03
78407;BME280;67692;51.074;-1.790;2023-04-01T02:00:35;99619.13;;;9.70;88.69
78407;BME280;67692;51.074;-1.790;2023-04-01T02:03:03;99610.84;;;9.76;89.03
78407;BME280;67692;51.074;-1.790;2023-04-01T02:05:32;99601.03;;;9.70;88.86
78407;BME280;67692;51.074;-1.790;2023-04-01T02:08:02;99617.50;;;9.69;89.26
78407;BME280;67692;51.074;-1.790;2023-04-01T02:10:35;99618.91;;;9.62;89.31
78407;BME280;67692;51.074;-1.790;2023-04-01T02:13:07;99622.19;;;9.64;89.50
78407;BME280;67692;51.074;-1.790;2023-04-01T02:15:40;99624.91;;;9.63;89.10
78407;BME280;67692;51.074;-1.790;2023-04-01T02:18:08;99627.38;;;9.64;89.37
78407;BME280;67692;51.074;-1.790;2023-04-01T02:20:37;99625.44;;;9.57;89.21
78407;BME280;67692;51.074;-1.790;2023-04-01T02:23:06;99614.97;;;9.58;89.22
78407;BME280;67692;51.074;-1.790;2023-04-01T02:25:35;99625.03;;;9.61;89.38
78407;BME280;67692;51.074;-1.790;2023-04-01T02:28:04;99628.13;;;9.55;89.05
78407;BME280;67692;51.074;-1.790;2023-04-01T02:30:34;99632.41;;;9.45;89.25
78407;BME280;67692;51.074;-1.790;2023-04-01T02:33:03;99624.41;;;9.48;89.80
78407;BME280;67692;51.074;-1.790;2023-04-01T02:35:30;99625.22;;;9.48;89.47
78407;BME280;67692;51.074;-1.790;2023-04-01T02:38:00;99624.84;;;9.53;88.79
78407;BME280;67692;51.074;-1.790;2023-04-01T02:40:27;99625.59;;;9.44;89.27
78407;BME280;67692;51.074;-1.790;2023-04-01T02:42:54;99633.22;;;9.45;89.30
78407;BME280;67692;51.074;-1.790;2023-04-01T02:45:20;99638.66;;;9.42;89.40
78407;BME280;67692;51.074;-1.790;2023-04-01T02:47:47;99640.53;;;9.40;89.38
78407;BME280;67692;51.074;-1.790;2023-04-01T02:50:15;99642.75;;;9.45;89.60
78407;BME280;67692;51.074;-1.790;2023-04-01T02:52:41;99636.19;;;9.41;89.55
78407;BME280;67692;51.074;-1.790;2023-04-01T02:55:10;99643.00;;;9.42;89.48
78407;BME280;67692;51.074;-1.790;2023-04-01T02:57:36;99632.53;;;9.43;89.70
78407;BME280;67692;51.074;-1.790;2023-04-01T03:00:04;99638.19;;;9.37;89.45
78407;BME280;67692;51.074;-1.790;2023-04-01T03:02:36;99637.34;;;9.37;89.42
78407;BME280;67692;51.074;-1.790;2023-04-01T03:05:04;99631.19;;;9.28;89.57
78407;BME280;67692;51.074;-1.790;2023-04-01T03:07:30;99636.78;;;9.33;89.97
78407;BME280;67692;51.074;-1.790;2023-04-01T03:09:57;99640.06;;;9.35;89.57
78407;BME280;67692;51.074;-1.790;2023-04-01T03:12:25;99649.47;;;9.36;89.54
78407;BME280;67692;51.074;-1.790;2023-04-01T03:14:51;99654.06;;;9.33;89.88
78407;BME280;67692;51.074;-1.790;2023-04-01T03:17:18;99648.19;;;9.31;89.52
78407;BME280;67692;51.074;-1.790;2023-04-01T03:19:45;99646.53;;;9.41;90.01
78407;BME280;67692;51.074;-1.790;2023-04-01T03:22:11;99650.03;;;9.40;89.97
78407;BME280;67692;51.074;-1.790;2023-04-01T03:24:38;99649.94;;;9.41;89.95
78407;BME280;67692;51.074;-1.790;2023-04-01T03:27:05;99653.31;;;9.42;89.93
78407;BME280;67692;51.074;-1.790;2023-04-01T03:29:32;99656.91;;;9.50;89.75
78407;BME280;67692;51.074;-1.790;2023-04-01T03:31:59;99656.56;;;9.55;89.68
78407;BME280;67692;51.074;-1.790;2023-04-01T03:34:26;99660.19;;;9.52;89.18
78407;BME280;67692;51.074;-1.790;2023-04-01T03:36:52;99661.53;;;9.47;89.14
78407;BME280;67692;51.074;-1.790;2023-04-01T03:39:19;99667.50;;;9.47;89.29
78407;BME280;67692;51.074;-1.790;2023-04-01T03:41:46;99666.91;;;9.55;88.88
78407;BME280;67692;51.074;-1.790;2023-04-01T03:44:13;99667.13;;;9.52;88.41
78407;BME280;67692;51.074;-1.790;2023-04-01T03:46:41;99668.00;;;9.41;88.81
78407;BME280;67692;51.074;-1.790;2023-04-01T03:49:08;99672.00;;;9.34;88.77
78407;BME280;67692;51.074;-1.790;2023-04-01T03:51:36;99674.47;;;9.36;89.13
78407;BME280;67692;51.074;-1.790;2023-04-01T03:54:03;99675.16;;;9.38;88.92
78407;BME280;67692;51.074;-1.790;2023-04-01T03:56:30;99668.63;;;9.34;89.22
78407;BME280;67692;51.074;-1.790;2023-04-01T03:58:56;99675.16;;;9.38;88.81
78407;BME280;67692;51.074;-1.790;2023-04-01T04:01:23;99674.72;;;9.33;89.49
78407;BME280;67692;51.074;-1.790;2023-04-01T04:03:51;99680.72;;;9.33;88.81
78407;BME280;67692;51.074;-1.790;2023-04-01T04:06:18;99674.72;;;9.33;88.79
78407;BME280;67692;51.074;-1.790;2023-04-01T04:08:45;99678.94;;;9.34;88.83
78407;BME280;67692;51.074;-1.790;2023-04-01T04:11:12;99684.81;;;9.36;88.74
78407;BME280;67692;51.074;-1.790;2023-04-01T04:13:40;99686.00;;;9.32;88.62
78407;BME280;67692;51.074;-1.790;2023-04-01T04:16:07;99682.97;;;9.27;88.71
78407;BME280;67692;51.074;-1.790;2023-04-01T04:18:35;99682.22;;;9.36;88.40
78407;BME280;67692;51.074;-1.790;2023-04-01T04:21:03;99682.84;;;9.28;88.66
78407;BME280;67692;51.074;-1.790;2023-04-01T04:23:31;99682.47;;;9.33;88.69
78407;BME280;67692;51.074;-1.790;2023-04-01T04:26:00;99693.13;;;9.39;88.23
78407;BME280;67692;51.074;-1.790;2023-04-01T04:28:28;99696.53;;;9.40;88.36
78407;BME280;67692;51.074;-1.790;2023-04-01T04:30:55;99699.25;;;9.38;87.76
78407;BME280;67692;51.074;-1.790;2023-04-01T04:33:23;99699.25;;;9.38;88.18
78407;BME280;67692;51.074;-1.790;2023-04-01T04:35:50;99698.19;;;9.41;88.30
78407;BME280;67692;51.074;-1.790;2023-04-01T04:38:18;99693.06;;;9.30;88.05
78407;BME280;67692;51.074;-1.790;2023-04-01T04:40:45;99696.34;;;9.32;88.40
78407;BME280;67692;51.074;-1.790;2023-04-01T04:43:13;99698.66;;;9.35;88.51
78407;BME280;67692;51.074;-1.790;2023-04-01T04:45:40;99697.97;;;9.33;88.26
78407;BME280;67692;51.074;-1.790;2023-04-01T04:48:08;99705.47;;;9.36;88.32
78407;BME280;67692;51.074;-1.790;2023-04-01T04:50:35;99706.41;;;9.35;88.09
78407;BME280;67692;51.074;-1.790;2023-04-01T04:53:02;99702.19;;;9.34;88.37
78407;BME280;67692;51.074;-1.790;2023-04-01T04:55:30;99711.59;;;9.35;87.96
78407;BME280;67692;51.074;-1.790;2023-04-01T04:57:56;99713.47;;;9.33;88.35
78407;BME280;67692;51.074;-1.790;2023-04-01T05:00:23;99706.44;;;9.23;88.13
78407;BME280;67692;51.074;-1.790;2023-04-01T05:02:50;99715.13;;;9.22;87.71
78407;BME280;67692;51.074;-1.790;2023-04-01T05:05:16;99715.13;;;9.22;87.71
78407;BME280;67692;51.074;-1.790;2023-04-01T05:07:43;99719.97;;;9.27;88.25
78407;BME280;67692;51.074;-1.790;2023-04-01T05:10:10;99721.72;;;9.27;87.96
78407;BME280;67692;51.074;-1.790;2023-04-01T05:12:38;99722.63;;;9.25;88.29
78407;BME280;67692;51.074;-1.790;2023-04-01T05:15:07;99724.50;;;9.35;88.45
78407;BME280;67692;51.074;-1.790;2023-04-01T05:17:34;99727.53;;;9.40;88.21
78407;BME280;67692;51.074;-1.790;2023-04-01T05:20:01;99739.06;;;9.36;87.97
78407;BME280;67692;51.074;-1.790;2023-04-01T05:22:28;99738.59;;;9.42;87.84
78407;BME280;67692;51.074;-1.790;2023-04-01T05:24:55;99738.13;;;9.37;87.02
78407;BME280;67692;51.074;-1.790;2023-04-01T05:27:21;99739.53;;;9.41;87.45
78407;BME280;67692;51.074;-1.790;2023-04-01T05:29:49;99748.44;;;9.37;87.66
78407;BME280;67692;51.074;-1.790;2023-04-01T05:32:16;99751.50;;;9.42;87.81
78407;BME280;67692;51.074;-1.790;2023-04-01T05:34:43;99754.44;;;9.37;87.47
78407;BME280;67692;51.074;-1.790;2023-04-01T05:37:09;99757.03;;;9.37;87.43
78407;BME280;67692;51.074;-1.790;2023-04-01T05:39:37;99754.44;;;9.37;87.17
78407;BME280;67692;51.074;-1.790;2023-04-01T05:42:05;99757.16;;;9.36;87.52
78407;BME280;67692;51.074;-1.790;2023-04-01T05:44:32;99761.03;;;9.41;87.55
78407;BME280;67692;51.074;-1.790;2023-04-01T05:47:00;99758.19;;;9.44;87.58
78407;BME280;67692;51.074;-1.790;2023-04-01T05:49:27;99759.13;;;9.43;87.11
78407;BME280;67692;51.074;-1.790;2023-04-01T05:51:54;99766.66;;;9.46;87.56
78407;BME280;67692;51.074;-1.790;2023-04-01T05:54:20;99765.56;;;9.49;87.50
78407;BME280;67692;51.074;-1.790;2023-04-01T05:56:47;99767.34;;;9.48;87.13
78407;BME280;67692;51.074;-1.790;2023-04-01T05:59:14;99772.75;;;9.45;87.21
78407;BME280;67692;51.074;-1.790;2023-04-01T06:01:41;99762.16;;;9.48;87.38
78407;BME280;67692;51.074;-1.790;2023-04-01T06:04:12;99772.63;;;9.47;86.97
78407;BME280;67692;51.074;-1.790;2023-04-01T06:06:39;99777.81;;;9.47;86.87
78407;BME280;67692;51.074;-1.790;2023-04-01T06:09:13;99771.94;;;9.45;87.69
78407;BME280;67692;51.074;-1.790;2023-04-01T06:11:53;99772.75;;;9.45;87.64
78407;BME280;67692;51.074;-1.790;2023-04-01T06:14:30;99779.44;;;9.48;87.62
78407;BME280;67692;51.074;-1.790;2023-04-01T06:17:12;99778.94;;;9.54;87.21
78407;BME280;67692;51.074;-1.790;2023-04-01T06:19:47;99785.78;;;9.55;87.34
78407;BME280;67692;51.074;-1.790;2023-04-01T06:22:42;99793.28;;;9.58;86.95
78407;BME280;67692;51.074;-1.790;2023-04-01T06:25:21;99789.28;;;9.54;87.00
78407;BME280;67692;51.074;-1.790;2023-04-01T06:28:02;99790.94;;;9.55;86.97
78407;BME280;67692;51.074;-1.790;2023-04-01T06:30:40;99785.53;;;9.58;87.55
78407;BME280;67692;51.074;-1.790;2023-04-01T06:33:26;99787.75;;;9.51;86.95
78407;BME280;67692;51.074;-1.790;2023-04-01T06:36:21;99799.03;;;9.62;87.55
78407;BME280;67692;51.074;-1.790;2023-04-01T06:39:01;99810.06;;;9.64;87.81
78407;BME280;67692;51.074;-1.790;2023-04-01T06:41:52;99812.66;;;9.64;86.94
78407;BME280;67692;51.074;-1.790;2023-04-01T06:44:30;99814.16;;;9.66;87.05
78407;BME280;67692;51.074;-1.790;2023-04-01T06:47:11;99820.28;;;9.65;87.35
78407;BME280;67692;51.074;-1.790;2023-04-01T06:49:48;99817.94;;;9.62;87.24
78407;BME280;67692;51.074;-1.790;2023-04-01T06:52:25;99817.69;;;9.65;88.01
78407;BME280;67692;51.074;-1.790;2023-04-01T06:54:55;99816.75;;;9.66;87.72
78407;BME280;67692;51.074;-1.790;2023-04-01T06:57:31;99828.25;;;9.73;88.12
78407;BME280;67692;51.074;-1.790;2023-04-01T07:00:03;99832.59;;;9.73;88.38
78407;BME280;67692;51.074;-1.790;2023-04-01T07:02:36;99841.63;;;9.78;88.14
78407;BME280;67692;51.074;-1.790;2023-04-01T07:05:04;99839.75;;;9.80;88.23
78407;BME280;67692;51.074;-1.790;2023-04-01T07:07:36;99838.09;;;9.79;87.65
78407;BME280;67692;51.074;-1.790;2023-04-01T07:10:10;99851.16;;;9.78;87.32
78407;BME280;67692;51.074;-1.790;2023-04-01T07:12:43;99851.03;;;9.79;87.57
78407;BME280;67692;51.074;-1.790;2023-04-01T07:15:17;99855.13;;;9.82;87.32
78407;BME280;67692;51.074;-1.790;2023-04-01T07:17:48;99860.19;;;9.83;87.71
78407;BME280;67692;51.074;-1.790;2023-04-01T07:20:23;99858.44;;;9.84;87.43
78407;BME280;67692;51.074;-1.790;2023-04-01T07:22:55;99862.66;;;9.85;87.05
78407;BME280;67692;51.074;-1.790;2023-04-01T07:25:25;99856.69;;;9.84;87.57
78407;BME280;67692;51.074;-1.790;2023-04-01T07:27:59;99857.50;;;9.85;87.86
78407;BME280;67692;51.074;-1.790;2023-04-01T07:30:29;99856.69;;;9.84;88.51
78407;BME280;67692;51.074;-1.790;2023-04-01T07:33:01;99860.44;;;9.80;86.24
78407;BME280;67692;51.074;-1.790;2023-04-01T07:35:35;99856.91;;;9.81;87.67
78407;BME280;67692;51.074;-1.790;2023-04-01T07:38:13;99871.13;;;9.87;87.60
78407;BME280;67692;51.074;-1.790;2023-04-01T07:40:47;99872.75;;;9.88;86.94
78407;BME280;67692;51.074;-1.790;2023-04-01T07:43:25;99875.81;;;9.82;85.67
78407;BME280;67692;51.074;-1.790;2023-04-01T07:46:04;99880.53;;;9.77;86.58
78407;BME280;67692;51.074;-1.790;2023-04-01T07:48:38;99877.25;;;9.75;86.66
78407;BME280;67692;51.074;-1.790;2023-04-01T07:51:09;99890.50;;;9.81;87.14
78407;BME280;67692;51.074;-1.790;2023-04-01T07:53:46;99890.63;;;9.80;87.88
78407;BME280;67692;51.074;-1.790;2023-04-01T07:56:17;99886.88;;;9.84;87.90
78407;BME280;67692;51.074;-1.790;2023-04-01T07:58:54;99888.41;;;9.75;87.02
78407;BME280;67692;51.074;-1.790;2023-04-01T08:01:28;99894.72;;;9.82;87.94
78407;BME280;67692;51.074;-1.790;2023-04-01T08:04:14;99892.88;;;9.84;88.02
78407;BME280;67692;51.074;-1.790;2023-04-01T08:06:47;99905.31;;;9.79;87.69
78407;BME280;67692;51.074;-1.790;2023-04-01T08:09:24;99908.59;;;9.81;88.04
78407;BME280;67692;51.074;-1.790;2023-04-01T08:12:00;99907.56;;;9.84;88.40
78407;BME280;67692;51.074;-1.790;2023-04-01T08:14:35;99907.47;;;9.74;86.49
78407;BME280;67692;51.074;-1.790;2023-04-01T08:17:05;99908.03;;;9.67;86.26
78407;BME280;67692;51.074;-1.790;2023-04-01T08:19:47;99909.47;;;9.60;88.14
78407;BME280;67692;51.074;-1.790;2023-04-01T08:22:26;99913.09;;;9.68;88.67
78407;BME280;67692;51.074;-1.790;2023-04-01T08:24:56;99918.03;;;9.71;89.39
78407;BME280;67692;51.074;-1.790;2023-04-01T08:27:31;99928.72;;;9.78;88.81
78407;BME280;67692;51.074;-1.790;2023-04-01T08:30:04;99933.88;;;9.78;88.35
78407;BME280;67692;51.074;-1.790;2023-04-01T08:32:35;99923.53;;;9.78;88.77
78407;BME280;67692;51.074;-1.790;2023-04-01T08:35:08;99927.66;;;9.80;89.38
78407;BME280;67692;51.074;-1.790;2023-04-01T08:37:38;99936.09;;;9.82;88.66
78407;BME280;67692;51.074;-1.790;2023-04-01T08:40:24;99940.59;;;9.69;88.55
78407;BME280;67692;51.074;-1.790;2023-04-01T08:43:02;99950.22;;;9.78;89.38
78407;BME280;67692;51.074;-1.790;2023-04-01T08:46:02;99943.16;;;9.80;89.05
78407;BME280;67692;51.074;-1.790;2023-04-01T08:48:48;99953.88;;;9.76;88.16
78407;BME280;67692;51.074;-1.790;2023-04-01T08:51:47;99955.63;;;9.75;88.44
78407;BME280;67692;51.074;-1.790;2023-04-01T08:54:31;99960.69;;;9.66;87.60
78407;BME280;67692;51.074;-1.790;2023-04-01T08:57:10;99967.16;;;9.60;88.69
78407;BME280;67692;51.074;-1.790;2023-04-01T08:59:57;99962.44;;;9.43;88.42
78407;BME280;67692;51.074;-1.790;2023-04-01T09:02:50;99964.66;;;9.36;89.62
78407;BME280;67692;51.074;-1.790;2023-04-01T09:05:36;99962.56;;;9.41;89.67
78407;BME280;67692;51.074;-1.790;2023-04-01T09:08:13;99966.91;;;9.41;88.36
78407;BME280;67692;51.074;-1.790;2023-04-01T09:10:56;99961.38;;;9.34;88.91
78407;BME280;67692;51.074;-1.790;2023-04-01T09:13:32;99967.34;;;9.35;89.33
78407;BME280;67692;51.074;-1.790;2023-04-01T09:16:16;99974.16;;;9.36;88.91
78407;BME280;67692;51.074;-1.790;2023-04-01T09:18:59;99966.91;;;9.41;89.84
78407;BME280;67692;51.074;-1.790;2023-04-01T09:21:49;99980.75;;;9.40;89.13
78407;BME280;67692;51.074;-1.790;2023-04-01T09:24:33;99977.81;;;9.33;88.55
78407;BME280;67692;51.074;-1.790;2023-04-01T09:27:12;99977.72;;;9.46;89.44
78407;BME280;67692;51.074;-1.790;2023-04-01T09:35:47;99997.56;;;9.45;90.43
78407;BME280;67692;51.074;-1.790;2023-04-01T09:38:21;99996.03;;;9.54;89.63
78407;BME280;67692;51.074;-1.790;2023-04-01T09:40:55;99996.75;;;9.56;89.55
78407;BME280;67692;51.074;-1.790;2023-04-01T09:43:27;99991.69;;;9.54;89.50
78407;BME280;67692;51.074;-1.790;2023-04-01T09:46:10;99999.56;;;9.53;88.74
78407;BME280;67692;51.074;-1.790;2023-04-01T09:48:53;100005.91;;;9.49;88.63
78407;BME280;67692;51.074;-1.790;2023-04-01T09:51:28;99992.75;;;9.52;88.67
78407;BME280;67692;51.074;-1.790;2023-04-01T09:54:21;100000.06;;;9.58;88.88
78407;BME280;67692;51.074;-1.790;2023-04-01T09:57:18;100006.38;;;9.54;86.90
78407;BME280;67692;51.074;-1.790;2023-04-01T10:00:20;100014.75;;;9.58;88.69
78407;BME280;67692;51.074;-1.790;2023-04-01T10:03:25;100008.88;;;9.56;88.10
78407;BME280;67692;51.074;-1.790;2023-04-01T10:11:59;100024.50;;;9.76;88.04
78407;BME280;67692;51.074;-1.790;2023-04-01T10:15:07;100036.84;;;9.73;87.19
78407;BME280;67692;51.074;-1.790;2023-04-01T10:17:51;100030.50;;;9.77;88.18
78407;BME280;67692;51.074;-1.790;2023-04-01T10:23:30;100044.69;;;9.82;88.65
78407;BME280;67692;51.074;-1.790;2023-04-01T10:26:15;100045.66;;;9.81;88.03
78407;BME280;67692;51.074;-1.790;2023-04-01T10:29:02;100048.94;;;9.95;89.24
78407;BME280;67692;51.074;-1.790;2023-04-01T10:31:52;100057.41;;;9.97;87.57
78407;BME280;67692;51.074;-1.790;2023-04-01T10:34:42;100075.97;;;9.91;88.14
78407;BME280;67692;51.074;-1.790;2023-04-01T10:37:27;100074.31;;;9.78;88.35
78407;BME280;67692;51.074;-1.790;2023-04-01T10:40:30;100085.88;;;9.86;89.78
78407;BME280;67692;51.074;-1.790;2023-04-01T10:43:25;100073.41;;;9.91;89.95
78407;BME280;67692;51.074;-1.790;2023-04-01T10:49:30;100078.22;;;9.84;88.69
78407;BME280;67692;51.074;-1.790;2023-04-01T10:55:30;100093.75;;;9.84;90.00
78407;BME280;67692;51.074;-1.790;2023-04-01T10:58:24;100105.13;;;9.81;89.29
78407;BME280;67692;51.074;-1.790;2023-04-01T11:01:22;100101.59;;;9.82;89.55
78407;BME280;67692;51.074;-1.790;2023-04-01T11:04:30;100108.75;;;9.79;89.18
78407;BME280;67692;51.074;-1.790;2023-04-01T11:10:48;100117.25;;;9.92;89.43
78407;BME280;67692;51.074;-1.790;2023-04-01T11:13:57;100119.28;;;10.00;89.23
78407;BME280;67692;51.074;-1.790;2023-04-01T11:16:55;100114.09;;;10.11;88.26
78407;BME280;67692;51.074;-1.790;2023-04-01T11:25:54;100122.84;;;10.43;88.65
78407;BME280;67692;51.074;-1.790;2023-04-01T11:29:03;100133.28;;;10.53;87.15
78407;BME280;67692;51.074;-1.790;2023-04-01T11:31:47;100128.13;;;10.42;85.22
78407;BME280;67692;51.074;-1.790;2023-04-01T11:37:24;100142.13;;;10.39;84.36
78407;BME280;67692;51.074;-1.790;2023-04-01T11:40:02;100143.63;;;10.53;85.86
78407;BME280;67692;51.074;-1.790;2023-04-01T11:42:41;100144.22;;;10.68;84.13
78407;BME280;67692;51.074;-1.790;2023-04-01T11:45:19;100151.41;;;10.64;82.95
78407;BME280;67692;51.074;-1.790;2023-04-01T11:47:58;100155.50;;;10.56;82.89
78407;BME280;67692;51.074;-1.790;2023-04-01T11:50:38;100164.00;;;10.47;83.51
78407;BME280;67692;51.074;-1.790;2023-04-01T11:53:19;100171.31;;;10.41;83.34
78407;BME280;67692;51.074;-1.790;2023-04-01T11:56:09;100167.53;;;10.34;84.20
78407;BME280;67692;51.074;-1.790;2023-04-01T11:58:52;100178.34;;;10.39;83.30
78407;BME280;67692;51.074;-1.790;2023-04-01T12:01:27;100181.44;;;10.45;83.63
78407;BME280;67692;51.074;-1.790;2023-04-01T12:04:18;100186.38;;;10.59;84.52
78407;BME280;67692;51.074;-1.790;2023-04-01T12:06:56;100186.94;;;10.62;81.53
78407;BME280;67692;51.074;-1.790;2023-04-01T12:09:33;100188.94;;;10.70;81.15
78407;BME280;67692;51.074;-1.790;2023-04-01T12:12:13;100194.09;;;10.70;80.70
78407;BME280;67692;51.074;-1.790;2023-04-01T12:14:47;100204.72;;;10.67;81.71
78407;BME280;67692;51.074;-1.790;2023-04-01T12:17:27;100204.13;;;10.75;82.29
78407;BME280;67692;51.074;-1.790;2023-04-01T12:19:59;100210.59;;;10.69;82.29
78407;BME280;67692;51.074;-1.790;2023-04-01T12:22:45;100214.50;;;10.75;81.70
78407;BME280;67692;51.074;-1.790;2023-04-01T12:25:23;100209.66;;;10.81;80.91
78407;BME280;67692;51.074;-1.790;2023-04-01T12:28:01;100228.25;;;10.86;80.25
78407;BME280;67692;51.074;-1.790;2023-04-01T12:30:39;100212.81;;;10.96;81.19
78407;BME280;67692;51.074;-1.790;2023-04-01T12:33:25;100224.22;;;11.05;82.19
78407;BME280;67692;51.074;-1.790;2023-04-01T12:36:00;100229.66;;;11.01;82.54
78407;BME280;67692;51.074;-1.790;2023-04-01T12:38:44;100234.16;;;10.99;81.69
78407;BME280;67692;51.074;-1.790;2023-04-01T12:41:24;100238.47;;;10.99;79.23
78407;BME280;67692;51.074;-1.790;2023-04-01T12:44:13;100244.84;;;11.06;80.13
78407;BME280;67692;51.074;-1.790;2023-04-01T12:47:13;100251.78;;;11.17;80.34
78407;BME280;67692;51.074;-1.790;2023-04-01T12:50:09;100250.59;;;11.10;79.71
78407;BME280;67692;51.074;-1.790;2023-04-01T12:52:54;100252.25;;;11.11;79.92
78407;BME280;67692;51.074;-1.790;2023-04-01T12:55:36;100249.31;;;11.15;79.25
78407;BME280;67692;51.074;-1.790;2023-04-01T12:58:19;100260.50;;;11.16;77.57
78407;BME280;67692;51.074;-1.790;2023-04-01T13:03:56;100267.66;;;11.23;79.56
78407;BME280;67692;51.074;-1.790;2023-04-01T13:06:40;100272.72;;;11.25;78.00
78407;BME280;67692;51.074;-1.790;2023-04-01T13:09:17;100283.47;;;11.09;80.55
78407;BME280;67692;51.074;-1.790;2023-04-01T13:11:52;100286.66;;;11.01;80.38
78407;BME280;67692;51.074;-1.790;2023-04-01T13:14:33;100292.19;;;11.08;80.14
78407;BME280;67692;51.074;-1.790;2023-04-01T13:17:08;100294.53;;;11.11;80.84
78407;BME280;67692;51.074;-1.790;2023-04-01T13:19:40;100289.59;;;11.08;80.63
78407;BME280;67692;51.074;-1.790;2023-04-01T13:22:15;100290.16;;;11.23;80.05
78407;BME280;67692;51.074;-1.790;2023-04-01T13:24:50;100298.25;;;11.41;78.19
78407;BME280;67692;51.074;-1.790;2023-04-01T13:27:25;100300.28;;;11.26;77.57
78407;BME280;67692;51.074;-1.790;2023-04-01T13:30:17;100312.41;;;11.25;78.17
78407;BME280;67692;51.074;-1.790;2023-04-01T13:32:50;100317.59;;;11.25;75.65
78407;BME280;67692;51.074;-1.790;2023-04-01T13:35:28;100318.91;;;11.20;76.16
78407;BME280;67692;51.074;-1.790;2023-04-01T13:41:00;100329.28;;;11.20;76.62
78407;BME280;67692;51.074;-1.790;2023-04-01T13:43:37;100335.53;;;11.17;79.02
78407;BME280;67692;51.074;-1.790;2023-04-01T13:46:20;100343.53;;;11.03;76.13
78407;BME280;67692;51.074;-1.790;2023-04-01T13:49:03;100347.63;;;10.94;77.43
78407;BME280;67692;51.074;-1.790;2023-04-01T13:52:04;100348.97;;;11.00;77.43
78407;BME280;67692;51.074;-1.790;2023-04-01T13:54:56;100357.06;;;11.07;76.61
78407;BME280;67692;51.074;-1.790;2023-04-01T13:57:36;100361.19;;;10.98;76.55
78407;BME280;67692;51.074;-1.790;2023-04-01T14:00:22;100363.66;;;11.11;76.44
78407;BME280;67692;51.074;-1.790;2023-04-01T14:03:09;100365.56;;;11.20;74.48
78407;BME280;67692;51.074;-1.790;2023-04-01T14:05:50;100371.19;;;11.14;73.32
78407;BME280;67692;51.074;-1.790;2023-04-01T14:08:39;100380.53;;;11.16;74.52
78407;BME280;67692;51.074;-1.790;2023-04-01T14:11:13;100382.72;;;10.98;73.37
78407;BME280;67692;51.074;-1.790;2023-04-01T14:13:51;100383.19;;;10.92;74.92
78407;BME280;67692;51.074;-1.790;2023-04-01T14:19:30;100397.41;;;10.76;76.83
78407;BME280;67692;51.074;-1.790;2023-04-01T14:22:06;100408.13;;;10.82;77.10